createdAt,value
2023-04-19T05:31:04.678Z,24.17
2023-04-19T05:33:32.246Z,23.73
2023-04-19T05:35:59.688Z,30.17
2023-04-19T05:38:27.176Z,26.83
2023-04-19T05:40:54.740Z,27.08
2023-04-19T05:43:22.598Z,20.05
2023-04-19T05:45:50.251Z,24.63
2023-04-19T05:48:17.706Z,27.30
2023-04-19T05:50:48.035Z,28.98
2023-04-19T05:53:15.822Z,23.48
2023-04-19T05:55:45.842Z,23.45
2023-04-19T05:58:13.800Z,31.98
2023-04-19T06:00:44.664Z,26.17
2023-04-19T06:03:12.908Z,28.00
2023-04-19T06:05:42.400Z,28.10
2023-04-19T06:08:10.053Z,25.58
2023-04-19T06:10:52.684Z,23.17
2023-04-19T06:13:23.801Z,29.13
2023-04-19T06:15:52.261Z,28.42
2023-04-19T06:18:20.423Z,26.40
2023-04-19T06:20:48.951Z,23.17
2023-04-19T06:23:20.635Z,22.02
2023-04-19T06:25:49.386Z,21.48
2023-04-19T06:28:17.336Z,25.42
2023-04-19T06:30:45.624Z,21.85
2023-04-19T06:33:13.651Z,20.48
2023-04-19T06:35:43.483Z,19.17
2023-04-19T06:38:11.175Z,22.10
2023-04-19T06:40:38.862Z,24.60
2023-04-19T06:43:06.749Z,24.40
2023-04-19T06:45:34.722Z,18.73
2023-04-19T06:48:02.417Z,15.25
2023-04-19T06:50:29.977Z,20.00
2023-04-19T06:52:57.398Z,20.13
2023-04-19T06:55:25.329Z,16.25
2023-04-19T06:57:52.928Z,19.60
2023-04-19T07:00:20.548Z,21.88
2023-04-19T07:02:48.627Z,28.25
2023-04-19T07:05:16.493Z,17.77
2023-04-19T07:07:44.788Z,16.38
2023-04-19T07:10:12.927Z,20.50
2023-04-19T07:12:40.563Z,21.98
2023-04-19T07:15:09.236Z,21.17
2023-04-19T07:17:37.962Z,22.13
2023-04-19T07:20:07.175Z,17.85
2023-04-19T07:22:35.943Z,18.50
2023-04-19T07:25:03.885Z,19.17
2023-04-19T07:27:32.060Z,15.38
2023-04-19T07:29:59.680Z,16.98
2023-04-19T07:32:27.442Z,12.68
2023-04-19T07:34:55.495Z,15.52
2023-04-19T07:37:23.121Z,16.80
2023-04-19T07:39:51.957Z,16.73
2023-04-19T07:42:19.888Z,13.65
2023-04-19T07:44:47.972Z,15.27
2023-04-19T07:47:16.119Z,19.27
2023-04-19T07:49:44.659Z,14.95
2023-04-19T07:52:13.497Z,17.08
2023-04-19T07:54:42.188Z,15.23
2023-04-19T07:57:12.878Z,15.43
2023-04-19T07:59:41.330Z,22.08
2023-04-19T08:02:09.626Z,15.23
2023-04-19T08:04:38.370Z,14.27
2023-04-19T08:07:07.284Z,18.45
2023-04-19T08:09:35.430Z,13.68
2023-04-19T08:12:03.753Z,13.80
2023-04-19T08:14:40.596Z,12.73
2023-04-19T08:19:47.794Z,16.75
2023-04-19T08:22:16.159Z,13.40
2023-04-19T08:24:45.692Z,12.18
2023-04-19T08:27:13.746Z,9.13
2023-04-19T08:29:41.990Z,8.45
2023-04-19T08:32:09.814Z,10.00
2023-04-19T08:34:39.197Z,8.88
2023-04-19T08:37:10.726Z,9.93
2023-04-19T08:39:39.220Z,12.13
2023-04-19T08:42:18.270Z,8.95
2023-04-19T08:45:23.416Z,11.43
2023-04-19T08:47:56.816Z,11.15
2023-04-19T08:50:33.183Z,14.38
2023-04-19T08:55:34.631Z,11.55
2023-04-19T08:58:05.900Z,9.75
2023-04-19T09:00:42.405Z,17.20
2023-04-19T09:03:11.575Z,14.30
2023-04-19T09:05:39.668Z,14.90
2023-04-19T09:08:28.883Z,11.63
2023-04-19T09:10:57.552Z,13.35
2023-04-19T09:13:25.723Z,18.65
2023-04-19T09:15:53.934Z,13.40
2023-04-19T09:18:21.714Z,18.23
2023-04-19T09:20:49.561Z,12.07
2023-04-19T09:23:19.225Z,13.13
2023-04-19T09:28:32.140Z,14.45
2023-04-19T09:31:35.343Z,13.38
2023-04-19T09:34:30.860Z,18.73
2023-04-19T09:37:11.035Z,13.70
2023-04-19T09:39:41.169Z,13.65
2023-04-19T09:42:09.352Z,16.73
2023-04-19T09:47:27.430Z,12.32
2023-04-19T09:52:45.784Z,16.08
2023-04-19T09:55:24.926Z,13.32
2023-04-19T09:57:55.295Z,18.88
2023-04-19T10:00:23.271Z,21.38
2023-04-19T10:02:58.483Z,12.63
2023-04-19T10:05:26.852Z,12.95
2023-04-19T10:07:59.941Z,16.52
2023-04-19T10:13:15.968Z,16.23
2023-04-19T10:15:52.596Z,14.70
2023-04-19T10:18:24.103Z,12.07
2023-04-19T10:20:53.015Z,13.35
2023-04-19T10:23:22.500Z,14.52
2023-04-19T10:25:59.317Z,11.70
2023-04-19T10:28:34.114Z,11.68
2023-04-19T10:31:03.470Z,12.10
2023-04-19T10:33:39.025Z,10.90
2023-04-19T10:36:11.728Z,14.05
2023-04-19T10:38:49.514Z,11.52
2023-04-19T10:41:21.897Z,12.80
2023-04-19T10:44:10.356Z,12.43
2023-04-19T10:46:40.734Z,9.93
2023-04-19T10:49:09.757Z,13.57
2023-04-19T10:51:47.646Z,14.85
2023-04-19T10:54:39.559Z,13.25
2023-04-19T10:57:08.847Z,10.38
2023-04-19T10:59:37.325Z,12.30
2023-04-19T11:02:23.166Z,12.23
2023-04-19T11:04:51.061Z,10.35
2023-04-19T11:07:21.134Z,9.20
2023-04-19T11:09:49.765Z,10.88
2023-04-19T11:12:18.867Z,12.00
2023-04-19T11:14:52.235Z,11.73
2023-04-19T11:17:32.650Z,10.43
2023-04-19T11:20:00.589Z,13.90
2023-04-19T11:22:42.093Z,16.15
2023-04-19T11:25:21.051Z,13.07
2023-04-19T11:27:50.938Z,14.50
2023-04-19T11:30:22.404Z,10.65
2023-04-19T11:32:54.417Z,15.45
2023-04-19T11:35:24.905Z,11.68
2023-04-19T11:37:53.325Z,14.10
2023-04-19T11:40:22.693Z,14.60
2023-04-19T11:43:00.306Z,16.77
2023-04-19T11:45:39.447Z,17.65
2023-04-19T11:48:16.762Z,15.88
2023-04-19T11:50:45.899Z,15.70
2023-04-19T11:53:23.581Z,18.83
2023-04-19T11:56:00.073Z,16.25
2023-04-19T11:58:42.358Z,13.15
2023-04-19T12:01:22.578Z,15.33
2023-04-19T12:03:57.611Z,14.90
2023-04-19T12:06:33.957Z,22.05
2023-04-19T12:09:12.722Z,19.75
2023-04-19T12:11:48.185Z,21.55
2023-04-19T12:14:24.794Z,20.17
2023-04-19T12:17:16.191Z,20.55
2023-04-19T12:19:47.035Z,19.25
2023-04-19T12:22:16.830Z,22.20
2023-04-19T12:24:44.561Z,22.52
2023-04-19T12:27:12.329Z,24.15
2023-04-19T12:29:39.738Z,24.98
2023-04-19T12:32:07.464Z,25.00
2023-04-19T12:34:35.580Z,23.55
2023-04-19T12:37:05.021Z,26.25
2023-04-19T12:39:32.773Z,23.20
2023-04-19T12:42:01.594Z,27.63
2023-04-19T12:44:29.636Z,24.05
2023-04-19T12:46:58.605Z,30.83
2023-04-19T12:49:28.211Z,30.73
2023-04-19T12:51:57.392Z,31.25
2023-04-19T12:54:25.222Z,31.75
2023-04-19T12:56:53.346Z,35.35
2023-04-19T12:59:22.160Z,32.97
2023-04-19T13:01:50.302Z,33.00
2023-04-19T13:04:18.884Z,33.05
2023-04-19T13:06:48.517Z,36.58
2023-04-19T13:09:16.132Z,26.95
2023-04-19T13:11:43.823Z,33.20
2023-04-19T13:14:11.663Z,34.50
2023-04-19T13:16:39.248Z,42.17
2023-04-19T13:19:06.807Z,36.10
2023-04-19T13:21:34.295Z,35.72
2023-04-19T13:24:01.768Z,43.25
2023-04-19T13:26:29.676Z,35.75
2023-04-19T13:28:57.400Z,34.75
2023-04-19T13:31:24.886Z,41.47
2023-04-19T13:33:52.436Z,34.55
2023-04-19T13:36:19.929Z,36.03
2023-04-19T13:38:47.852Z,37.65
2023-04-19T13:41:15.529Z,38.17
2023-04-19T13:43:42.991Z,35.38
2023-04-19T13:46:10.553Z,38.10
2023-04-19T13:48:38.043Z,28.58
2023-04-19T13:51:06.096Z,31.75
2023-04-19T13:53:33.573Z,33.35
2023-04-19T13:56:01.154Z,30.77
2023-04-19T13:58:29.380Z,31.60
2023-04-19T14:00:56.725Z,28.88
2023-04-19T14:03:24.326Z,28.10
2023-04-19T14:05:51.828Z,22.40
2023-04-19T14:08:19.418Z,22.75
2023-04-19T14:10:46.602Z,25.58
2023-04-19T14:13:13.822Z,23.95
2023-04-19T14:15:41.006Z,24.65
2023-04-19T14:18:08.884Z,26.63
2023-04-19T14:20:36.259Z,25.98
2023-04-19T14:23:03.820Z,25.30
2023-04-19T14:25:31.329Z,23.20
2023-04-19T14:27:59.168Z,21.58
2023-04-19T14:30:27.189Z,21.80
2023-04-19T14:32:55.424Z,25.45
2023-04-19T14:35:22.605Z,21.45
2023-04-19T14:37:49.740Z,21.25
2023-04-19T14:40:20.578Z,20.65
2023-04-19T14:42:47.713Z,19.55
2023-04-19T14:45:14.945Z,20.88
2023-04-19T14:47:42.690Z,19.27
2023-04-19T14:50:11.818Z,21.52
2023-04-19T14:52:39.096Z,18.33
2023-04-19T14:55:06.930Z,17.15
2023-04-19T14:57:34.513Z,17.80
2023-04-19T15:00:02.193Z,16.83
2023-04-19T15:02:30.008Z,17.73
2023-04-19T15:04:57.953Z,14.38
2023-04-19T15:07:26.188Z,16.45
2023-04-19T15:09:53.640Z,13.25
2023-04-19T15:12:21.397Z,19.92
2023-04-19T15:14:48.425Z,14.45
2023-04-19T15:17:16.700Z,14.93
2023-04-19T15:19:46.829Z,16.55
2023-04-19T15:22:13.903Z,16.30
2023-04-19T15:24:41.125Z,15.60
2023-04-19T15:27:08.330Z,19.27
2023-04-19T15:29:35.709Z,14.05
2023-04-19T15:32:04.589Z,16.13
2023-04-19T15:34:32.081Z,15.77
2023-04-19T15:36:59.253Z,18.90
2023-04-19T15:39:26.901Z,15.63
2023-04-19T15:41:54.380Z,15.60
2023-04-19T15:44:21.862Z,19.38
2023-04-19T15:46:49.392Z,20.63
2023-04-19T15:49:17.764Z,16.98
2023-04-19T15:51:45.533Z,18.50
2023-04-19T15:54:14.553Z,17.90
2023-04-19T15:56:42.157Z,21.02
2023-04-19T15:59:09.631Z,17.80
